createdAt,value
2022-09-05T00:00:19.381Z,4.22
2022-09-05T00:03:20.080Z,2.20
2022-09-05T00:06:01.968Z,3.30
2022-09-05T00:08:42.681Z,1.17
2022-09-05T00:11:40.659Z,5.32
2022-09-05T00:15:16.685Z,2.85
2022-09-05T00:19:28.444Z,2.58
2022-09-05T00:24:20.309Z,1.92
2022-09-05T00:24:54.742Z,2.63
2022-09-05T00:27:32.099Z,2.35
2022-09-05T00:31:51.533Z,1.90
2022-09-05T00:33:17.874Z,2.80
2022-09-05T00:36:08.729Z,1.25
2022-09-05T00:38:40.961Z,2.53
2022-09-05T00:41:13.634Z,2.35
2022-09-05T00:46:26.585Z,2.97
2022-09-05T00:49:28.787Z,3.83
2022-09-05T00:51:58.821Z,1.45
2022-09-05T00:54:47.105Z,3.55
2022-09-05T00:57:30.610Z,2.42
2022-09-05T01:00:18.172Z,2.30
2022-09-05T01:02:51.609Z,5.80
2022-09-05T01:05:44.934Z,2.55
2022-09-05T01:08:46.198Z,1.98
2022-09-05T01:11:35.682Z,1.85
2022-09-05T01:14:30.678Z,3.83
2022-09-05T01:17:22.047Z,1.98
2022-09-05T01:20:29.912Z,1.85
2022-09-05T01:23:27.217Z,1.75
2022-09-05T01:26:07.803Z,3.22
2022-09-05T01:29:16.217Z,2.72
2022-09-05T01:32:15.315Z,3.67
2022-09-05T01:34:57.649Z,4.93
2022-09-05T01:37:48.509Z,1.17
2022-09-05T01:40:51.565Z,2.88
2022-09-05T01:44:00.013Z,1.63
2022-09-05T01:46:39.204Z,2.75
2022-09-05T01:49:53.247Z,1.67
2022-09-05T01:53:04.623Z,1.40
2022-09-05T01:56:04.353Z,1.65
2022-09-05T01:58:57.957Z,2.47
2022-09-05T02:01:39.902Z,1.58
2022-09-05T02:04:12.858Z,2.17
2022-09-05T02:07:19.354Z,2.47
2022-09-05T02:10:07.978Z,8.25
2022-09-05T02:12:43.997Z,1.70
2022-09-05T02:15:37.852Z,1.60
2022-09-05T02:18:11.094Z,2.45
2022-09-05T02:20:41.102Z,3.65
2022-09-05T02:23:41.822Z,2.67
2022-09-05T02:26:24.194Z,6.47
2022-09-05T02:29:10.774Z,3.25
2022-09-05T02:31:49.367Z,1.73
2022-09-05T02:34:25.522Z,6.72
2022-09-05T02:37:03.310Z,3.78
2022-09-05T02:45:03.689Z,5.43
2022-09-05T02:45:19.265Z,2.67
2022-09-05T02:45:49.302Z,2.67
2022-09-05T02:48:31.752Z,2.15
2022-09-05T02:57:25.701Z,2.72
2022-09-05T02:57:35.412Z,3.75
2022-09-05T02:58:04.561Z,1.63
2022-09-05T03:02:39.922Z,3.03
2022-09-05T03:05:25.258Z,1.48
2022-09-05T03:07:58.514Z,3.80
2022-09-05T03:10:55.372Z,2.58
2022-09-05T03:14:06.398Z,6.13
2022-09-05T03:17:24.466Z,1.45
2022-09-05T03:20:32.567Z,2.08
2022-09-05T03:23:23.494Z,1.98
2022-09-05T03:26:27.238Z,2.78
2022-09-05T03:29:13.077Z,3.33
2022-09-05T03:32:06.462Z,3.10
2022-09-05T03:35:16.986Z,3.28
2022-09-05T03:38:34.836Z,3.55
2022-09-05T03:41:16.627Z,2.83
2022-09-05T03:43:55.811Z,1.65
2022-09-05T03:47:20.256Z,1.83
2022-09-05T03:53:16.415Z,1.75
2022-09-05T03:57:17.339Z,3.10
2022-09-05T03:57:20.297Z,2.20
2022-09-05T03:59:44.899Z,2.17
2022-09-05T04:03:10.593Z,2.35
2022-09-05T04:08:13.749Z,1.70
2022-09-05T04:08:31.880Z,2.10
2022-09-05T04:11:02.179Z,2.65
2022-09-05T04:13:46.429Z,4.55
2022-09-05T04:16:20.261Z,2.10
2022-09-05T04:19:18.461Z,2.10
2022-09-05T04:21:59.277Z,3.63
2022-09-05T04:24:53.079Z,3.28
2022-09-05T04:27:49.882Z,4.10
2022-09-05T04:30:40.573Z,5.68
2022-09-05T04:33:35.844Z,3.97
2022-09-05T04:36:25.103Z,2.85
2022-09-05T04:39:19.829Z,5.97
2022-09-05T04:41:51.518Z,3.03
2022-09-05T04:44:26.555Z,3.35
2022-09-05T04:47:28.004Z,4.38
2022-09-05T04:50:23.334Z,2.75
2022-09-05T04:53:26.947Z,2.13
2022-09-05T04:55:57.871Z,1.55
2022-09-05T05:00:15.462Z,3.25
2022-09-05T05:06:13.106Z,5.20
2022-09-05T05:06:16.121Z,2.58
2022-09-05T05:08:01.113Z,5.55
2022-09-05T05:15:21.737Z,6.20
2022-09-05T05:17:58.392Z,5.45
2022-09-05T05:18:10.906Z,8.20
2022-09-05T05:19:27.201Z,4.93
2022-09-05T05:21:58.109Z,13.25
2022-09-05T05:24:35.300Z,4.53
2022-09-05T05:27:25.818Z,3.75
2022-09-05T05:29:59.622Z,4.25
2022-09-05T05:32:45.913Z,11.70
2022-09-05T05:35:13.563Z,4.03
2022-09-05T05:37:53.039Z,7.82
2022-09-05T05:40:26.259Z,5.15
2022-09-05T05:43:15.010Z,7.20
2022-09-05T05:45:42.949Z,16.60
2022-09-05T05:48:12.876Z,7.65
2022-09-05T05:50:54.442Z,7.22
2022-09-05T05:53:30.388Z,5.78
2022-09-05T05:56:30.998Z,5.28
2022-09-05T05:59:13.045Z,9.75
2022-09-05T06:01:52.421Z,3.83
2022-09-05T06:05:00.724Z,2.70
2022-09-05T06:08:10.238Z,3.85
2022-09-05T06:14:59.829Z,7.00
2022-09-05T06:15:03.764Z,6.82
2022-09-05T06:17:28.398Z,6.40
2022-09-05T06:22:08.689Z,10.52
2022-09-05T06:23:30.810Z,14.88
2022-09-05T06:26:20.992Z,14.27
2022-09-05T06:29:02.938Z,5.77
2022-09-05T06:31:52.898Z,4.23
2022-09-05T06:34:38.576Z,5.05
2022-09-05T06:37:24.916Z,5.57
2022-09-05T06:40:11.832Z,4.18
2022-09-05T06:43:02.551Z,6.05
2022-09-05T06:45:58.619Z,9.32
2022-09-05T06:48:45.540Z,3.28
2022-09-05T06:51:35.612Z,5.25
2022-09-05T06:54:31.436Z,3.45
2022-09-05T06:57:20.304Z,4.38
2022-09-05T07:00:21.697Z,4.55
2022-09-05T07:02:59.331Z,4.45
2022-09-05T07:05:39.421Z,3.13
2022-09-05T07:08:35.201Z,4.00
2022-09-05T07:11:18.382Z,3.80
2022-09-05T07:13:57.233Z,3.65
2022-09-05T07:16:38.091Z,6.68
2022-09-05T07:19:34.514Z,2.80
2022-09-05T07:22:29.558Z,4.63
2022-09-05T07:25:09.611Z,3.05
2022-09-05T07:28:28.302Z,2.92
2022-09-05T07:30:32.842Z,4.28
2022-09-05T07:33:03.550Z,3.22
2022-09-05T07:35:41.386Z,4.18
2022-09-05T07:38:52.082Z,6.47
2022-09-05T07:41:32.707Z,3.65
2022-09-05T07:44:14.049Z,4.60
2022-09-05T07:46:42.306Z,10.00
2022-09-05T07:49:14.555Z,4.97
2022-09-05T07:56:55.662Z,6.75
2022-09-05T07:57:03.721Z,4.35
2022-09-05T07:57:50.996Z,5.63
2022-09-05T08:00:26.864Z,2.25
2022-09-05T08:03:09.202Z,2.85
2022-09-05T08:05:40.807Z,8.25
2022-09-05T08:08:13.322Z,2.53
2022-09-05T08:11:23.217Z,5.28
2022-09-05T08:13:40.020Z,3.63
2022-09-05T08:16:13.624Z,0.88
2022-09-05T08:18:54.641Z,2.05
2022-09-05T08:21:28.169Z,3.60
2022-09-05T08:23:58.046Z,1.50
2022-09-05T08:26:36.697Z,4.55
2022-09-05T08:29:11.175Z,0.85
2022-09-05T08:31:52.453Z,0.88
2022-09-05T08:34:44.921Z,2.42
2022-09-05T08:37:21.135Z,5.60
2022-09-05T08:40:03.869Z,2.17
2022-09-05T08:45:52.017Z,0.98
2022-09-05T08:46:43.899Z,1.88
2022-09-05T08:49:36.885Z,5.85
2022-09-05T08:52:42.919Z,1.48
2022-09-05T08:55:30.359Z,2.00
2022-09-05T08:58:27.412Z,2.35
2022-09-05T09:01:36.853Z,1.25
2022-09-05T09:05:02.175Z,4.72
2022-09-05T09:07:51.535Z,0.88
2022-09-05T09:10:46.880Z,2.42
2022-09-05T09:13:52.204Z,0.88
2022-09-05T09:16:30.282Z,0.32
2022-09-05T09:19:12.162Z,1.90
2022-09-05T09:21:48.766Z,0.87
2022-09-05T09:24:35.783Z,1.13
2022-09-05T09:27:09.268Z,1.02
2022-09-05T09:29:40.035Z,1.02
2022-09-05T09:32:13.570Z,1.05
2022-09-05T09:34:59.749Z,3.88
2022-09-05T09:38:06.792Z,3.33
2022-09-05T09:41:02.412Z,3.25
2022-09-05T09:44:07.849Z,2.42
2022-09-05T09:46:45.390Z,4.03
2022-09-05T09:49:39.253Z,1.20
2022-09-05T09:52:24.917Z,9.05
2022-09-05T09:55:56.281Z,0.70
2022-09-05T09:58:54.222Z,1.77
2022-09-05T10:01:39.440Z,1.95
2022-09-05T10:10:39.008Z,1.80
2022-09-05T10:10:49.914Z,1.10
2022-09-05T10:10:52.398Z,3.10
2022-09-05T10:13:35.831Z,0.77
2022-09-05T10:16:24.618Z,1.65
2022-09-05T10:19:16.984Z,1.70
2022-09-05T10:25:18.765Z,4.45
2022-09-05T10:28:11.771Z,2.08
2022-09-05T10:32:45.343Z,1.27
2022-09-05T10:35:15.252Z,4.32
2022-09-05T10:37:10.808Z,4.15
2022-09-05T10:39:43.562Z,1.65
2022-09-05T10:42:17.097Z,4.00
2022-09-05T10:44:55.945Z,1.52
2022-09-05T10:47:53.802Z,2.70
2022-09-05T10:50:28.966Z,0.77
2022-09-05T10:53:06.446Z,2.28
2022-09-05T10:55:52.406Z,4.57
2022-09-05T11:02:18.707Z,0.93
2022-09-05T11:02:29.554Z,1.05
2022-09-05T11:04:51.207Z,1.65
2022-09-05T11:07:27.879Z,2.53
2022-09-05T11:10:02.901Z,1.85
2022-09-05T11:12:34.000Z,0.90
2022-09-05T11:15:06.618Z,6.70
2022-09-05T11:18:03.804Z,1.92
2022-09-05T11:21:12.129Z,1.83
2022-09-05T11:23:47.568Z,0.75
2022-09-05T11:26:33.579Z,0.70
2022-09-05T11:29:14.088Z,1.23
2022-09-05T11:36:35.289Z,1.42
2022-09-05T11:37:59.705Z,1.95
2022-09-05T11:40:10.677Z,2.00
2022-09-05T11:41:08.479Z,2.17
2022-09-05T11:43:57.430Z,0.68
2022-09-05T11:46:58.346Z,0.85
2022-09-05T11:50:19.415Z,1.00
2022-09-05T11:52:51.374Z,1.05
2022-09-05T11:55:33.135Z,4.30
2022-09-05T11:58:43.842Z,1.17
2022-09-05T12:01:42.228Z,1.00
2022-09-05T12:04:29.422Z,0.50
2022-09-05T12:07:26.355Z,9.75
2022-09-05T12:10:47.280Z,4.97
2022-09-05T12:18:55.124Z,0.80
2022-09-05T12:21:42.527Z,0.60
2022-09-05T12:25:24.153Z,1.10
2022-09-05T12:27:41.088Z,0.80
2022-09-05T12:30:14.187Z,1.02
2022-09-05T12:36:02.885Z,0.45
2022-09-05T12:36:07.543Z,2.90
2022-09-05T12:40:25.373Z,1.20
2022-09-05T12:41:41.217Z,0.57
2022-09-05T12:42:14.678Z,1.80
2022-09-05T12:45:09.128Z,0.80
2022-09-05T12:48:04.038Z,0.47
2022-09-05T12:50:43.274Z,2.67
2022-09-05T12:53:18.346Z,6.13
2022-09-05T12:57:50.335Z,1.00
2022-09-05T13:03:04.769Z,0.65
2022-09-05T13:03:08.221Z,0.38
2022-09-05T13:04:51.268Z,2.13
2022-09-05T13:07:43.998Z,7.88
2022-09-05T13:14:53.765Z,0.77
2022-09-05T13:16:24.922Z,1.60
2022-09-05T13:19:02.246Z,0.30
2022-09-05T13:21:31.178Z,1.05
2022-09-05T13:24:05.116Z,1.08
2022-09-05T13:26:37.898Z,0.40
2022-09-05T13:29:16.046Z,2.17
2022-09-05T13:37:53.927Z,0.85
2022-09-05T13:37:58.216Z,1.63
2022-09-05T13:38:29.263Z,2.40
2022-09-05T13:40:48.834Z,3.90
2022-09-05T13:43:29.552Z,0.40
2022-09-05T13:46:06.313Z,0.93
2022-09-05T13:51:41.596Z,8.98
2022-09-05T13:54:38.182Z,0.30
2022-09-05T13:57:32.362Z,1.85
2022-09-05T14:00:15.401Z,3.15
2022-09-05T14:03:37.961Z,0.60
2022-09-05T14:06:47.126Z,1.63
2022-09-05T14:09:39.297Z,0.32
2022-09-05T14:12:37.264Z,0.40
2022-09-05T14:15:24.873Z,1.30
2022-09-05T14:18:20.471Z,3.85
2022-09-05T14:21:17.283Z,2.78
2022-09-05T14:23:55.951Z,0.95
2022-09-05T14:26:29.104Z,3.67
2022-09-05T14:29:19.555Z,2.92
2022-09-05T14:37:38.656Z,0.32
2022-09-05T14:37:40.298Z,0.20
2022-09-05T14:38:30.272Z,1.58
2022-09-05T14:41:25.619Z,0.80
2022-09-05T14:44:37.842Z,0.98
2022-09-05T14:47:36.290Z,2.17
2022-09-05T14:50:18.294Z,1.60
2022-09-05T14:57:23.074Z,0.50
2022-09-05T15:02:52.292Z,3.38
2022-09-05T15:02:58.665Z,0.82
2022-09-05T15:05:13.323Z,5.25
2022-09-05T15:07:43.932Z,0.80
2022-09-05T15:12:18.511Z,1.92
2022-09-05T15:13:02.973Z,1.50
2022-09-05T15:15:35.760Z,1.85
2022-09-05T15:18:09.983Z,1.05
2022-09-05T15:20:43.829Z,3.20
2022-09-05T15:23:28.317Z,4.07
2022-09-05T15:26:00.989Z,2.47
2022-09-05T15:28:36.034Z,0.57
2022-09-05T15:31:10.530Z,1.17
2022-09-05T15:33:40.718Z,1.88
2022-09-05T15:36:13.333Z,0.50
2022-09-05T15:38:54.868Z,0.40
2022-09-05T15:41:27.824Z,2.60
2022-09-05T15:43:58.313Z,1.03
2022-09-05T15:46:34.244Z,4.53
2022-09-05T15:49:06.470Z,3.10
2022-09-05T15:51:51.644Z,1.83
2022-09-05T15:54:50.391Z,0.65
2022-09-05T15:57:39.921Z,1.30
2022-09-05T16:00:10.209Z,1.58
2022-09-05T16:02:45.924Z,2.95
2022-09-05T16:10:28.408Z,3.40
2022-09-05T16:10:37.063Z,0.40
2022-09-05T16:12:03.491Z,1.25
2022-09-05T16:14:23.890Z,3.50
2022-09-05T16:23:20.711Z,2.08
2022-09-05T16:23:34.524Z,2.10
2022-09-05T16:23:39.296Z,0.65
2022-09-05T16:29:13.275Z,0.88
2022-09-05T16:32:27.537Z,0.95
2022-09-05T16:34:57.663Z,1.58
2022-09-05T16:37:30.015Z,0.32
2022-09-05T16:42:46.065Z,1.23
2022-09-05T16:45:50.152Z,5.53
2022-09-05T16:48:39.049Z,3.38
2022-09-05T16:51:35.827Z,2.22
2022-09-05T16:54:26.247Z,2.65
2022-09-05T16:57:02.479Z,1.73
2022-09-05T16:59:32.875Z,3.88
2022-09-05T17:02:07.363Z,1.42
2022-09-05T17:05:04.383Z,0.80
2022-09-05T17:07:50.972Z,0.32
2022-09-05T17:10:21.606Z,3.47
2022-09-05T17:12:53.129Z,3.33
2022-09-05T17:15:26.189Z,2.28
2022-09-05T17:18:31.854Z,3.85
2022-09-05T17:21:02.762Z,1.23
2022-09-05T17:29:20.504Z,1.25
2022-09-05T17:29:24.590Z,7.03
2022-09-05T17:32:47.161Z,3.08
2022-09-05T17:35:51.487Z,2.10
2022-09-05T17:38:40.437Z,5.55
2022-09-05T17:41:20.325Z,1.55
2022-09-05T17:43:58.450Z,1.30
2022-09-05T17:46:31.829Z,1.80
2022-09-05T17:49:19.131Z,2.65
2022-09-05T17:51:53.246Z,1.48
2022-09-05T17:54:30.597Z,13.98
2022-09-05T17:57:26.463Z,4.13
2022-09-05T17:59:54.918Z,2.67
2022-09-05T18:02:21.951Z,5.65
2022-09-05T18:04:51.522Z,3.45
2022-09-05T18:07:31.045Z,8.50
2022-09-05T18:13:13.713Z,4.20
2022-09-05T18:15:38.347Z,3.65
2022-09-05T18:18:08.657Z,2.03
2022-09-05T18:21:12.296Z,7.72
2022-09-05T18:24:00.381Z,3.72
2022-09-05T18:26:28.317Z,3.00
2022-09-05T18:29:03.891Z,3.45
2022-09-05T18:31:41.463Z,2.47
2022-09-05T18:34:15.607Z,6.72
2022-09-05T18:36:44.237Z,3.22
2022-09-05T18:39:24.632Z,3.20
2022-09-05T18:42:33.841Z,3.08
2022-09-05T18:45:01.046Z,3.28
2022-09-05T18:47:52.745Z,4.40
2022-09-05T18:50:29.212Z,4.20
2022-09-05T18:53:10.340Z,2.10
2022-09-05T18:56:14.287Z,8.30
2022-09-05T18:59:10.117Z,3.78
2022-09-05T19:01:43.538Z,2.90
2022-09-05T19:04:40.868Z,8.15
2022-09-05T19:07:18.558Z,2.47
2022-09-05T19:10:35.527Z,7.95
2022-09-05T19:13:15.691Z,4.20
2022-09-05T19:15:53.299Z,3.20
2022-09-05T19:18:34.870Z,8.25
2022-09-05T19:21:12.521Z,4.50
2022-09-05T19:23:50.344Z,3.65
2022-09-05T19:26:17.844Z,5.25
2022-09-05T19:36:49.723Z,4.13
2022-09-05T19:36:50.138Z,3.95
2022-09-05T19:37:03.296Z,6.03
2022-09-05T19:37:39.946Z,5.55
2022-09-05T19:46:22.420Z,3.58
2022-09-05T19:47:42.235Z,3.65
2022-09-05T19:47:50.283Z,2.53
2022-09-05T19:49:11.980Z,5.13
2022-09-05T19:51:43.682Z,3.15
2022-09-05T19:54:32.239Z,5.47
2022-09-05T19:57:05.815Z,2.70
2022-09-05T19:59:41.945Z,2.97
2022-09-05T20:02:20.161Z,2.90
2022-09-05T20:04:52.873Z,2.75
2022-09-05T20:07:27.235Z,2.10
2022-09-05T20:09:56.103Z,1.27
2022-09-05T20:12:35.739Z,4.13
2022-09-05T20:15:35.897Z,6.80
2022-09-05T20:18:24.500Z,5.30
2022-09-05T20:21:04.076Z,1.45
2022-09-05T20:23:32.190Z,2.47
2022-09-05T20:26:00.822Z,1.63
2022-09-05T20:28:35.689Z,2.25
2022-09-05T20:31:08.942Z,1.98
2022-09-05T20:33:58.370Z,8.18
2022-09-05T20:43:07.737Z,2.15
2022-09-05T20:43:23.804Z,2.92
2022-09-05T20:43:36.696Z,3.10
2022-09-05T20:45:01.132Z,3.22
2022-09-05T20:52:08.860Z,3.42
2022-09-05T20:54:14.764Z,2.70
2022-09-05T20:54:21.138Z,3.95
2022-09-05T20:56:23.412Z,4.88
2022-09-05T20:58:51.578Z,2.80
2022-09-05T21:01:23.417Z,5.50
2022-09-05T21:04:02.470Z,6.25
2022-09-05T21:06:34.484Z,5.13
2022-09-05T21:09:23.829Z,2.30
2022-09-05T21:11:52.675Z,5.13
2022-09-05T21:14:21.537Z,3.25
2022-09-05T21:16:57.300Z,2.63
2022-09-05T21:19:26.737Z,5.65
2022-09-05T21:22:16.379Z,1.33
2022-09-05T21:24:46.437Z,3.13
2022-09-05T21:27:16.602Z,3.83
2022-09-05T21:29:44.485Z,6.30
2022-09-05T21:32:20.713Z,2.70
2022-09-05T21:34:52.089Z,2.63
2022-09-05T21:37:20.871Z,2.83
2022-09-05T21:39:59.753Z,2.88
2022-09-05T21:45:12.677Z,3.10
2022-09-05T21:47:49.748Z,3.70
2022-09-05T21:48:15.546Z,7.35
2022-09-05T21:50:45.451Z,9.65
2022-09-05T21:56:38.675Z,7.45
2022-09-05T21:59:22.716Z,8.73
2022-09-05T21:59:27.971Z,8.43
2022-09-05T22:01:55.283Z,11.43
2022-09-05T22:04:22.521Z,22.95
2022-09-05T22:06:52.935Z,40.25
2022-09-05T22:09:22.267Z,27.50
2022-09-05T22:11:52.722Z,13.80
2022-09-05T22:14:22.189Z,22.17
2022-09-05T22:16:52.127Z,7.72
2022-09-05T22:19:26.211Z,11.90
2022-09-05T22:22:15.672Z,10.95
2022-09-05T22:25:06.261Z,11.50
2022-09-05T22:27:35.342Z,9.27
2022-09-05T22:30:04.344Z,7.55
2022-09-05T22:32:34.471Z,6.85
2022-09-05T22:35:26.846Z,3.15
2022-09-05T22:38:03.514Z,8.30
2022-09-05T22:40:32.676Z,5.53
2022-09-05T22:43:02.243Z,2.25
2022-09-05T22:45:30.907Z,3.10
2022-09-05T22:47:58.779Z,6.28
2022-09-05T22:50:26.748Z,6.45
2022-09-05T22:52:53.857Z,5.47
2022-09-05T22:55:20.927Z,2.67
2022-09-05T22:57:47.993Z,2.88
2022-09-05T23:00:15.326Z,3.50
2022-09-05T23:02:42.351Z,4.45
2022-09-05T23:05:09.622Z,5.47
2022-09-05T23:07:36.675Z,2.47
2022-09-05T23:10:04.032Z,9.43
2022-09-05T23:12:35.886Z,5.60
2022-09-05T23:15:03.311Z,5.57
2022-09-05T23:17:30.422Z,8.27
2022-09-05T23:19:57.558Z,5.88
2022-09-05T23:22:24.631Z,7.55
2022-09-05T23:24:51.747Z,9.68
2022-09-05T23:27:18.760Z,7.47
2022-09-05T23:29:45.803Z,11.85
2022-09-05T23:32:12.842Z,9.82
2022-09-05T23:34:39.854Z,9.02
2022-09-05T23:37:08.680Z,10.00
2022-09-05T23:39:35.796Z,9.77
2022-09-05T23:42:03.148Z,8.90
2022-09-05T23:44:30.217Z,5.18
2022-09-05T23:46:57.318Z,7.53
2022-09-05T23:49:24.365Z,13.98
2022-09-05T23:51:51.424Z,8.60
2022-09-05T23:54:18.516Z,6.20
2022-09-05T23:56:45.639Z,5.90
2022-09-05T23:59:12.802Z,4.78
